createdAt,value
2023-03-04T00:00:04.484Z,28.15
2023-03-04T00:02:37.184Z,31.98
2023-03-04T00:05:04.480Z,32.88
2023-03-04T00:07:31.598Z,28.98
2023-03-04T00:09:58.780Z,28.13
2023-03-04T00:12:25.850Z,33.85
2023-03-04T00:14:52.945Z,32.53
2023-03-04T00:17:20.015Z,30.52
2023-03-04T00:19:47.344Z,30.02
2023-03-04T00:22:14.546Z,29.58
2023-03-04T00:24:41.761Z,28.70
2023-03-04T00:27:08.873Z,34.30
2023-03-04T00:29:36.004Z,33.38
2023-03-04T00:32:03.126Z,31.55
2023-03-04T00:34:32.433Z,34.15
2023-03-04T00:37:01.702Z,35.50
2023-03-04T00:39:28.875Z,31.30
2023-03-04T00:41:56.281Z,27.83
2023-03-04T00:44:23.327Z,31.48
2023-03-04T00:46:50.713Z,34.53
2023-03-04T00:49:18.155Z,34.30
2023-03-04T00:51:45.316Z,32.05
2023-03-04T00:54:12.526Z,30.23
2023-03-04T00:56:39.628Z,31.88
2023-03-04T00:59:06.626Z,29.80
2023-03-04T01:01:33.777Z,33.45
2023-03-04T01:04:00.866Z,37.45
2023-03-04T01:06:28.046Z,41.40
2023-03-04T01:08:55.105Z,37.88
2023-03-04T01:11:22.562Z,33.58
2023-03-04T01:13:49.638Z,36.90
2023-03-04T01:16:16.780Z,34.97
2023-03-04T01:18:43.970Z,31.83
2023-03-04T01:21:11.022Z,29.20
2023-03-04T01:23:38.105Z,31.08
2023-03-04T01:26:05.330Z,32.80
2023-03-04T01:28:36.053Z,34.00
2023-03-04T01:31:04.532Z,31.77
2023-03-04T01:33:31.816Z,29.70
2023-03-04T01:35:58.882Z,29.92
2023-03-04T01:38:26.761Z,28.85
2023-03-04T01:40:54.428Z,29.48
2023-03-04T01:43:24.820Z,29.23
2023-03-04T01:45:53.529Z,32.78
2023-03-04T01:48:26.995Z,27.30
2023-03-04T01:50:54.118Z,32.95
2023-03-04T01:53:26.509Z,33.95
2023-03-04T01:55:58.280Z,28.90
2023-03-04T01:58:32.915Z,30.15
2023-03-04T02:00:59.958Z,26.75
2023-03-04T02:03:27.622Z,27.88
2023-03-04T02:05:55.769Z,31.27
2023-03-04T02:08:24.903Z,28.63
2023-03-04T02:10:52.525Z,26.23
2023-03-04T02:13:19.900Z,29.48
2023-03-04T02:15:47.659Z,28.38
2023-03-04T02:18:18.591Z,25.60
2023-03-04T02:20:54.678Z,26.17
2023-03-04T02:23:29.722Z,29.13
2023-03-04T02:26:15.064Z,31.65
2023-03-04T02:28:43.592Z,25.75
2023-03-04T02:31:41.476Z,28.75
2023-03-04T02:34:23.062Z,26.08
2023-03-04T02:36:52.604Z,29.63
2023-03-04T02:39:28.744Z,29.65
2023-03-04T02:41:56.830Z,26.10
2023-03-04T02:44:36.582Z,26.33
2023-03-04T02:47:05.862Z,26.15
2023-03-04T02:49:34.643Z,30.57
2023-03-04T02:52:08.071Z,31.38
2023-03-04T02:54:37.430Z,29.33
2023-03-04T02:57:08.417Z,28.17
2023-03-04T02:59:38.698Z,26.70
2023-03-04T03:02:07.309Z,29.27
2023-03-04T03:04:37.163Z,26.00
2023-03-04T03:07:08.097Z,28.83
2023-03-04T03:09:35.862Z,27.48
2023-03-04T03:12:02.981Z,25.50
2023-03-04T03:14:32.097Z,25.40
2023-03-04T03:16:59.405Z,25.98
2023-03-04T03:19:26.489Z,28.15
2023-03-04T03:21:55.071Z,24.75
2023-03-04T03:24:22.098Z,24.85
2023-03-04T03:26:49.184Z,27.38
2023-03-04T03:29:16.345Z,25.63
2023-03-04T03:31:43.539Z,27.23
2023-03-04T03:34:10.545Z,22.33
2023-03-04T03:36:37.666Z,22.98
2023-03-04T03:39:04.795Z,21.95
2023-03-04T03:41:31.801Z,27.17
2023-03-04T03:43:58.815Z,23.42
2023-03-04T03:46:25.858Z,21.80
2023-03-04T03:48:53.104Z,24.83
2023-03-04T03:51:20.074Z,22.98
2023-03-04T03:53:47.250Z,23.00
2023-03-04T03:56:14.281Z,22.40
2023-03-04T03:58:41.427Z,23.48
2023-03-04T04:01:09.448Z,25.20
2023-03-04T04:03:36.758Z,24.13
2023-03-04T04:06:03.885Z,22.23
2023-03-04T04:08:30.946Z,22.50
2023-03-04T04:10:57.971Z,28.20
2023-03-04T04:13:25.320Z,25.55
2023-03-04T04:15:53.524Z,21.98
2023-03-04T04:18:20.778Z,23.33
2023-03-04T04:20:47.830Z,26.73
2023-03-04T04:23:14.947Z,22.35
2023-03-04T04:25:42.018Z,25.92
2023-03-04T04:28:09.217Z,23.58
2023-03-04T04:30:36.677Z,26.17
2023-03-04T04:33:05.068Z,26.48
2023-03-04T04:35:39.024Z,24.15
2023-03-04T04:38:07.458Z,23.20
2023-03-04T04:40:34.536Z,34.30
2023-03-04T04:43:01.909Z,19.85
2023-03-04T04:45:29.310Z,21.83
2023-03-04T04:47:57.598Z,25.85
2023-03-04T04:50:25.301Z,25.67
2023-03-04T04:52:52.954Z,19.98
2023-03-04T04:55:20.072Z,22.00
2023-03-04T04:57:47.659Z,21.77
2023-03-04T05:00:15.146Z,20.02
2023-03-04T05:02:42.224Z,24.42
2023-03-04T05:05:09.559Z,18.30
2023-03-04T05:07:37.116Z,22.88
2023-03-04T05:10:04.626Z,20.38
2023-03-04T05:12:31.648Z,21.92
2023-03-04T05:14:58.767Z,24.85
2023-03-04T05:17:25.896Z,24.52
2023-03-04T05:19:52.940Z,19.65
2023-03-04T05:22:20.070Z,23.45
2023-03-04T05:24:47.066Z,20.58
2023-03-04T05:27:14.167Z,19.58
2023-03-04T05:29:42.899Z,29.63
2023-03-04T05:32:10.084Z,21.23
2023-03-04T05:34:37.182Z,19.88
2023-03-04T05:37:04.184Z,21.05
2023-03-04T05:39:31.247Z,20.65
2023-03-04T05:41:58.339Z,20.17
2023-03-04T05:44:25.422Z,21.77
2023-03-04T05:46:52.586Z,21.90
2023-03-04T05:49:20.366Z,28.88
2023-03-04T05:51:47.535Z,21.95
2023-03-04T05:54:14.689Z,18.85
2023-03-04T05:56:42.000Z,20.60
2023-03-04T05:59:09.046Z,19.95
2023-03-04T06:01:36.132Z,21.27
2023-03-04T06:04:03.403Z,24.38
2023-03-04T06:06:30.425Z,20.08
2023-03-04T06:08:57.511Z,20.65
2023-03-04T06:11:24.609Z,21.90
2023-03-04T06:13:51.648Z,22.02
2023-03-04T06:16:18.798Z,28.25
2023-03-04T06:18:45.890Z,19.73
2023-03-04T06:21:13.109Z,24.33
2023-03-04T06:23:40.672Z,28.10
2023-03-04T06:26:10.298Z,24.65
2023-03-04T06:28:37.357Z,27.45
2023-03-04T06:31:04.622Z,22.63
2023-03-04T06:33:31.700Z,22.77
2023-03-04T06:35:58.838Z,20.38
2023-03-04T06:38:26.969Z,26.48
2023-03-04T06:40:57.217Z,24.30
2023-03-04T06:43:24.743Z,22.13
2023-03-04T06:45:51.944Z,20.90
2023-03-04T06:48:19.112Z,24.67
2023-03-04T06:50:46.225Z,28.88
2023-03-04T06:53:13.401Z,32.25
2023-03-04T06:55:40.516Z,25.67
2023-03-04T06:58:07.569Z,26.75
2023-03-04T07:00:34.834Z,27.05
2023-03-04T07:03:02.331Z,27.52
2023-03-04T07:05:29.465Z,24.42
2023-03-04T07:07:56.831Z,23.92
2023-03-04T07:10:23.968Z,26.88
2023-03-04T07:12:51.055Z,29.63
2023-03-04T07:15:18.240Z,22.98
2023-03-04T07:17:45.330Z,27.08
2023-03-04T07:20:12.661Z,26.15
2023-03-04T07:22:39.747Z,25.55
2023-03-04T07:25:07.505Z,33.50
2023-03-04T07:27:34.797Z,25.73
2023-03-04T07:30:02.736Z,21.50
2023-03-04T07:32:30.039Z,23.27
2023-03-04T07:34:57.286Z,26.35
2023-03-04T07:37:24.348Z,25.38
2023-03-04T07:39:51.419Z,25.13
2023-03-04T07:42:18.443Z,28.33
2023-03-04T07:44:53.489Z,26.65
2023-03-04T07:47:20.686Z,23.90
2023-03-04T07:49:47.651Z,22.17
2023-03-04T07:52:14.817Z,23.75
2023-03-04T07:54:41.991Z,32.60
2023-03-04T07:57:09.024Z,28.63
2023-03-04T07:59:36.288Z,26.55
2023-03-04T08:02:03.553Z,22.05
2023-03-04T08:04:30.715Z,25.33
2023-03-04T08:06:57.848Z,20.45
2023-03-04T08:09:25.307Z,21.92
2023-03-04T08:11:52.452Z,25.05
2023-03-04T08:14:19.955Z,21.90
2023-03-04T08:16:47.069Z,27.20
2023-03-04T08:19:14.169Z,20.08
2023-03-04T08:21:41.403Z,16.40
2023-03-04T08:24:09.057Z,23.63
2023-03-04T08:26:42.217Z,23.27
2023-03-04T08:29:12.583Z,20.52
2023-03-04T08:34:08.789Z,27.67
2023-03-04T08:36:36.262Z,23.95
2023-03-04T08:39:05.098Z,29.90
2023-03-04T08:41:32.288Z,23.17
2023-03-04T08:44:00.518Z,22.40
2023-03-04T08:46:27.980Z,20.88
2023-03-04T08:48:55.126Z,22.92
2023-03-04T08:51:22.587Z,18.20
2023-03-04T08:53:49.592Z,23.25
2023-03-04T08:56:17.225Z,24.00
2023-03-04T08:58:44.277Z,21.08
2023-03-04T09:01:13.015Z,20.15
2023-03-04T09:03:41.056Z,21.58
2023-03-04T09:06:09.045Z,23.77
2023-03-04T09:08:36.622Z,25.05
2023-03-04T09:11:04.173Z,20.98
2023-03-04T09:13:32.278Z,30.98
2023-03-04T09:16:00.091Z,30.77
2023-03-04T09:18:28.498Z,22.70
2023-03-04T09:20:55.869Z,34.75
2023-03-04T09:23:23.714Z,20.98
2023-03-04T09:25:51.022Z,22.20
2023-03-04T09:28:19.508Z,19.65
2023-03-04T09:30:47.084Z,23.20
2023-03-04T09:33:14.338Z,16.40
2023-03-04T09:35:42.011Z,21.95
2023-03-04T09:38:09.223Z,25.00
2023-03-04T09:40:46.908Z,17.85
2023-03-04T09:43:30.190Z,17.20
2023-03-04T09:46:04.928Z,20.63
2023-03-04T09:48:40.921Z,20.88
2023-03-04T09:51:42.025Z,19.67
2023-03-04T09:54:20.888Z,25.80
2023-03-04T09:56:51.738Z,20.73
2023-03-04T09:59:43.618Z,15.30
2023-03-04T10:02:29.346Z,20.95
2023-03-04T10:05:01.942Z,19.77
2023-03-04T10:07:36.729Z,20.83
2023-03-04T10:10:16.215Z,23.88
2023-03-04T10:12:48.567Z,24.33
2023-03-04T10:15:40.079Z,19.88
2023-03-04T10:18:22.218Z,21.73
2023-03-04T10:21:01.731Z,21.05
2023-03-04T10:23:31.964Z,24.38
2023-03-04T10:28:29.534Z,17.75
2023-03-04T10:31:23.236Z,17.40
2023-03-04T10:33:50.443Z,16.33
2023-03-04T10:36:20.085Z,19.02
2023-03-04T10:38:47.365Z,13.25
2023-03-04T10:41:21.383Z,12.45
2023-03-04T10:44:10.215Z,19.17
2023-03-04T10:46:46.211Z,11.50
2023-03-04T10:49:15.634Z,14.60
2023-03-04T10:51:44.323Z,17.13
2023-03-04T10:54:24.319Z,15.82
2023-03-04T10:57:06.877Z,14.70
2023-03-04T10:59:47.978Z,13.60
2023-03-04T11:02:20.559Z,17.70
2023-03-04T11:04:55.666Z,6.55
2023-03-04T11:07:24.900Z,5.63
2023-03-04T11:09:52.338Z,5.60
2023-03-04T11:12:33.588Z,3.88
2023-03-04T11:15:01.724Z,5.25
2023-03-04T11:17:42.288Z,4.13
2023-03-04T11:20:21.098Z,6.03
2023-03-04T11:22:48.498Z,7.25
2023-03-04T11:25:29.045Z,8.25
2023-03-04T11:28:03.463Z,6.03
2023-03-04T11:30:37.212Z,8.70
2023-03-04T11:33:28.671Z,6.57
2023-03-04T11:36:04.854Z,7.15
2023-03-04T11:38:49.907Z,4.60
2023-03-04T11:41:23.814Z,8.32
2023-03-04T11:43:50.983Z,9.05
2023-03-04T11:46:31.825Z,9.82
2023-03-04T11:49:11.792Z,10.88
2023-03-04T11:52:04.937Z,12.43
2023-03-04T11:54:35.083Z,13.15
2023-03-04T12:00:18.282Z,12.98
2023-03-04T12:03:04.996Z,16.95
2023-03-04T12:05:43.918Z,17.15
2023-03-04T12:08:29.469Z,19.55
2023-03-04T12:11:04.378Z,17.63
2023-03-04T12:14:02.388Z,17.52
2023-03-04T12:16:50.876Z,16.80
2023-03-04T12:19:26.685Z,18.35
2023-03-04T12:22:09.310Z,14.30
2023-03-04T12:24:55.004Z,24.20
2023-03-04T12:27:28.190Z,19.77
2023-03-04T12:30:05.747Z,27.00
2023-03-04T12:32:44.017Z,19.58
2023-03-04T12:35:17.135Z,19.33
2023-03-04T12:37:54.064Z,14.20
2023-03-04T12:40:27.559Z,15.15
2023-03-04T12:43:08.776Z,7.43
2023-03-04T12:45:48.977Z,9.77
2023-03-04T12:48:33.590Z,8.05
2023-03-04T12:51:36.632Z,6.70
2023-03-04T12:54:26.292Z,5.55
2023-03-04T12:57:34.649Z,4.88
2023-03-04T13:00:30.083Z,4.03
2023-03-04T13:03:04.119Z,3.05
2023-03-04T13:05:54.391Z,5.05
2023-03-04T13:09:11.921Z,7.30
2023-03-04T13:11:54.732Z,4.82
2023-03-04T13:14:21.885Z,2.50
2023-03-04T13:16:54.598Z,3.85
2023-03-04T13:19:56.370Z,5.18
2023-03-04T13:22:43.802Z,4.35
2023-03-04T13:25:31.402Z,3.17
2023-03-04T13:28:03.934Z,3.10
2023-03-04T13:30:38.139Z,4.20
2023-03-04T13:33:10.977Z,2.03
2023-03-04T13:35:50.138Z,5.95
2023-03-04T13:38:33.713Z,3.30
2023-03-04T13:41:01.007Z,3.10
2023-03-04T13:43:36.886Z,4.78
2023-03-04T13:46:19.282Z,4.03
2023-03-04T13:48:52.772Z,2.00
2023-03-04T13:51:45.156Z,1.90
2023-03-04T13:54:33.504Z,4.72
2023-03-04T13:57:00.524Z,5.80
2023-03-04T13:59:32.973Z,1.95
2023-03-04T14:02:22.794Z,1.77
2023-03-04T14:05:01.144Z,3.78
2023-03-04T14:07:32.467Z,8.68
2023-03-04T14:10:07.733Z,5.75
2023-03-04T14:12:41.843Z,6.55
2023-03-04T14:15:14.813Z,3.33
2023-03-04T14:17:47.541Z,7.57
2023-03-04T14:20:29.927Z,2.58
2023-03-04T14:22:58.661Z,3.00
2023-03-04T14:25:27.124Z,4.30
2023-03-04T14:28:23.467Z,4.75
2023-03-04T14:30:55.865Z,3.45
2023-03-04T14:33:29.866Z,5.93
2023-03-04T14:36:00.379Z,3.28
2023-03-04T14:38:38.339Z,2.55
2023-03-04T14:41:28.961Z,1.70
2023-03-04T14:44:17.089Z,1.80
2023-03-04T14:47:04.635Z,2.70
2023-03-04T14:49:39.882Z,4.00
2023-03-04T14:52:07.931Z,7.15
2023-03-04T14:54:43.754Z,1.95
2023-03-04T14:57:32.567Z,2.92
2023-03-04T15:00:15.629Z,4.57
2023-03-04T15:02:43.193Z,6.85
2023-03-04T15:05:17.888Z,5.50
2023-03-04T15:07:52.032Z,7.30
2023-03-04T15:10:24.708Z,3.22
2023-03-04T15:12:54.993Z,5.50
2023-03-04T15:18:15.956Z,3.38
2023-03-04T15:20:43.191Z,3.15
2023-03-04T15:23:14.844Z,1.95
2023-03-04T15:25:42.037Z,2.20
2023-03-04T15:28:17.666Z,2.05
2023-03-04T15:30:44.785Z,3.40
2023-03-04T15:33:13.076Z,1.73
2023-03-04T15:35:42.113Z,2.55
2023-03-04T15:38:13.005Z,1.80
2023-03-04T15:40:43.536Z,4.75
2023-03-04T15:43:21.741Z,2.08
2023-03-04T15:45:50.197Z,3.92
2023-03-04T15:48:18.716Z,2.72
2023-03-04T15:50:55.541Z,2.10
2023-03-04T15:53:26.314Z,1.48
2023-03-04T15:55:53.672Z,3.70
2023-03-04T15:58:20.956Z,2.35
2023-03-04T16:00:48.233Z,4.65
2023-03-04T16:03:20.504Z,3.35
2023-03-04T16:05:50.539Z,4.35
2023-03-04T16:08:21.612Z,2.50
2023-03-04T16:10:51.706Z,4.28
2023-03-04T16:13:21.256Z,2.75
2023-03-04T16:15:49.017Z,3.95
2023-03-04T16:18:17.391Z,3.33
2023-03-04T16:20:50.045Z,2.08
2023-03-04T16:23:21.231Z,3.70
2023-03-04T16:25:50.896Z,2.20
2023-03-04T16:28:18.260Z,4.70
2023-03-04T16:30:45.597Z,2.83
2023-03-04T16:33:12.843Z,2.75
2023-03-04T16:35:40.138Z,3.03
2023-03-04T16:38:20.695Z,2.83
2023-03-04T16:40:48.206Z,4.30
2023-03-04T16:43:16.507Z,3.15
2023-03-04T16:45:44.559Z,3.35
2023-03-04T16:48:11.692Z,3.05
2023-03-04T16:50:39.295Z,3.95
2023-03-04T16:53:18.987Z,5.85
2023-03-04T16:55:46.107Z,3.92
2023-03-04T16:58:13.275Z,5.95
2023-03-04T17:00:40.344Z,7.55
2023-03-04T17:03:10.214Z,6.55
2023-03-04T17:05:37.904Z,7.82
2023-03-04T17:08:05.098Z,7.32
2023-03-04T17:10:32.456Z,10.40
2023-03-04T17:12:59.575Z,5.68
2023-03-04T17:15:26.815Z,5.50
2023-03-04T17:17:53.962Z,4.50
2023-03-04T17:20:21.270Z,4.47
2023-03-04T17:22:48.350Z,4.68
2023-03-04T17:25:16.276Z,4.40
2023-03-04T17:27:43.375Z,7.65
2023-03-04T17:30:12.782Z,4.95
2023-03-04T17:32:40.777Z,3.60
2023-03-04T17:35:09.223Z,4.53
2023-03-04T17:37:36.980Z,4.28
2023-03-04T17:40:06.377Z,4.07
2023-03-04T17:42:33.457Z,4.13
2023-03-04T17:45:00.645Z,8.20
2023-03-04T17:47:28.075Z,4.28
2023-03-04T17:49:55.264Z,3.50
2023-03-04T17:52:22.303Z,3.20
2023-03-04T17:54:49.459Z,3.08
2023-03-04T17:57:16.680Z,5.25
2023-03-04T17:59:44.011Z,5.05
2023-03-04T18:02:17.522Z,3.30
2023-03-04T18:04:47.125Z,3.72
2023-03-04T18:07:14.378Z,3.75
2023-03-04T18:09:43.269Z,11.00
2023-03-04T18:12:13.806Z,2.83
2023-03-04T18:14:41.149Z,5.60
2023-03-04T18:17:08.365Z,7.05
2023-03-04T18:19:35.400Z,4.72
2023-03-04T18:22:02.592Z,4.22
2023-03-04T18:24:30.010Z,3.67
2023-03-04T18:26:57.482Z,6.78
2023-03-04T18:29:24.633Z,4.35
2023-03-04T18:31:51.794Z,2.58
2023-03-04T18:34:18.955Z,3.20
2023-03-04T18:36:47.785Z,3.90
2023-03-04T18:39:16.843Z,3.85
2023-03-04T18:41:44.566Z,2.90
2023-03-04T18:44:11.847Z,2.38
2023-03-04T18:46:50.627Z,5.63
2023-03-04T18:49:20.391Z,2.75
2023-03-04T18:51:47.504Z,2.63
2023-03-04T18:54:14.662Z,3.47
2023-03-04T18:56:54.135Z,2.80
2023-03-04T18:59:32.736Z,3.72
2023-03-04T19:02:02.527Z,7.05
2023-03-04T19:04:30.680Z,3.25
2023-03-04T19:06:59.180Z,3.97
2023-03-04T19:09:26.875Z,4.43
2023-03-04T19:11:54.023Z,5.55
2023-03-04T19:14:21.528Z,4.25
2023-03-04T19:16:48.820Z,4.63
2023-03-04T19:19:15.909Z,6.88
2023-03-04T19:21:43.091Z,4.78
2023-03-04T19:24:10.305Z,4.72
2023-03-04T19:26:37.506Z,2.97
2023-03-04T19:29:05.838Z,3.65
2023-03-04T19:31:33.390Z,5.80
2023-03-04T19:34:00.511Z,4.03
2023-03-04T19:36:27.740Z,4.05
2023-03-04T19:38:55.740Z,3.53
2023-03-04T19:41:23.234Z,4.55
2023-03-04T19:43:54.392Z,5.20
2023-03-04T19:46:24.740Z,4.43
2023-03-04T19:48:52.038Z,6.10
2023-03-04T19:51:26.999Z,4.55
2023-03-04T19:53:54.756Z,5.95
2023-03-04T19:56:23.085Z,8.52
2023-03-04T19:58:53.182Z,3.33
2023-03-04T20:03:47.557Z,4.35
2023-03-04T20:06:14.703Z,4.88
2023-03-04T20:08:41.790Z,7.10
2023-03-04T20:11:12.897Z,10.02
2023-03-04T20:13:40.086Z,27.27
2023-03-04T20:16:08.809Z,28.73
2023-03-04T20:18:36.036Z,46.20
2023-03-04T20:21:04.144Z,15.82
2023-03-04T20:23:31.346Z,15.02
2023-03-04T20:25:58.502Z,12.25
2023-03-04T20:28:26.493Z,11.30
2023-03-04T20:30:54.580Z,11.50
2023-03-04T20:33:21.713Z,11.75
2023-03-04T20:35:48.880Z,7.47
2023-03-04T20:38:16.077Z,11.23
2023-03-04T20:40:44.490Z,10.15
2023-03-04T20:43:12.112Z,11.68
2023-03-04T20:45:39.295Z,13.02
2023-03-04T20:48:06.604Z,16.00
2023-03-04T20:50:33.694Z,15.32
2023-03-04T20:53:00.950Z,12.75
2023-03-04T20:55:28.305Z,16.48
2023-03-04T20:57:55.446Z,14.63
2023-03-04T21:00:22.977Z,16.45
2023-03-04T21:02:50.057Z,14.50
2023-03-04T21:05:17.121Z,14.27
2023-03-04T21:07:44.312Z,13.00
2023-03-04T21:10:11.578Z,15.57
2023-03-04T21:12:39.113Z,19.50
2023-03-04T21:15:07.099Z,17.35
2023-03-04T21:17:34.069Z,16.30
2023-03-04T21:20:01.272Z,20.48
2023-03-04T21:22:28.334Z,19.65
2023-03-04T21:28:05.880Z,19.35
2023-03-04T21:30:33.194Z,24.33
2023-03-04T21:33:01.936Z,20.30
2023-03-04T21:35:30.378Z,24.77
2023-03-04T21:37:57.546Z,24.38
2023-03-04T21:40:24.612Z,23.63
2023-03-04T21:42:51.736Z,15.93
2023-03-04T21:45:18.961Z,16.95
2023-03-04T21:47:46.084Z,16.70
2023-03-04T21:50:13.170Z,18.42
2023-03-04T21:52:40.353Z,17.25
2023-03-04T21:55:07.786Z,17.65
2023-03-04T21:57:35.116Z,17.05
2023-03-04T22:00:02.472Z,16.52
2023-03-04T22:02:38.788Z,15.98
2023-03-04T22:05:06.068Z,14.80
2023-03-04T22:07:34.840Z,25.52
2023-03-04T22:10:03.331Z,13.10
2023-03-04T22:12:30.317Z,13.75
2023-03-04T22:14:57.435Z,13.48
2023-03-04T22:17:24.682Z,14.63
2023-03-04T22:19:51.894Z,16.95
2023-03-04T22:22:19.174Z,18.85
2023-03-04T22:24:46.697Z,14.93
2023-03-04T22:27:13.753Z,19.80
2023-03-04T22:29:40.864Z,16.30
2023-03-04T22:32:08.023Z,16.90
2023-03-04T22:34:35.149Z,14.95
2023-03-04T22:37:02.293Z,17.33
2023-03-04T22:39:31.066Z,15.70
2023-03-04T22:41:58.122Z,16.63
2023-03-04T22:44:25.161Z,17.85
2023-03-04T22:46:52.367Z,18.02
2023-03-04T22:49:19.523Z,18.38
2023-03-04T22:51:46.946Z,18.05
2023-03-04T22:54:16.203Z,17.80
2023-03-04T22:56:43.556Z,14.07
2023-03-04T22:59:11.391Z,15.82
2023-03-04T23:01:38.674Z,16.33
2023-03-04T23:04:06.122Z,15.77
2023-03-04T23:06:33.296Z,18.80
2023-03-04T23:09:00.685Z,16.42
2023-03-04T23:11:30.630Z,15.70
2023-03-04T23:13:58.172Z,16.83
2023-03-04T23:16:27.966Z,13.02
2023-03-04T23:18:55.355Z,10.70
2023-03-04T23:21:25.291Z,12.07
2023-03-04T23:23:53.269Z,13.13
2023-03-04T23:26:29.308Z,14.70
2023-03-04T23:28:57.306Z,14.15
2023-03-04T23:31:25.825Z,13.40
2023-03-04T23:33:57.448Z,15.38
2023-03-04T23:36:30.369Z,17.02
2023-03-04T23:38:58.631Z,15.48
2023-03-04T23:41:28.195Z,15.73
2023-03-04T23:43:57.611Z,16.48
2023-03-04T23:46:25.719Z,14.15
2023-03-04T23:48:53.865Z,18.60
2023-03-04T23:51:24.663Z,18.13
2023-03-04T23:53:52.126Z,17.35
2023-03-04T23:56:23.426Z,18.85
2023-03-04T23:58:51.017Z,16.63
